sensor_id;sensor_type;location;lat;lon;timestamp;P1;durP1;ratioP1;P2;durP2;ratioP2
63217;SDS011;49314;48.278;16.378;2023-05-19T00:00:18;15.40;;;14.30;;
63217;SDS011;49314;48.278;16.378;2023-05-19T00:02:43;30.45;;;28.73;;
63217;SDS011;49314;48.278;16.378;2023-05-19T00:05:10;21.90;;;20.40;;
63217;SDS011;49314;48.278;16.378;2023-05-19T00:07:35;18.20;;;16.77;;
63217;SDS011;49314;48.278;16.378;2023-05-19T00:10:01;20.70;;;19.15;;
63217;SDS011;49314;48.278;16.378;2023-05-19T00:12:27;22.83;;;21.23;;
63217;SDS011;49314;48.278;16.378;2023-05-19T00:14:52;19.67;;;18.33;;
63217;SDS011;49314;48.278;16.378;2023-05-19T00:17:17;20.65;;;19.20;;
63217;SDS011;49314;48.278;16.378;2023-05-19T00:19:44;23.60;;;22.00;;
63217;SDS011;49314;48.278;16.378;2023-05-19T00:22:10;23.85;;;22.38;;
63217;SDS011;49314;48.278;16.378;2023-05-19T00:24:35;19.65;;;17.58;;
63217;SDS011;49314;48.278;16.378;2023-05-19T00:27:00;18.70;;;17.40;;
63217;SDS011;49314;48.278;16.378;2023-05-19T00:29:25;19.37;;;17.90;;
63217;SDS011;49314;48.278;16.378;2023-05-19T00:31:50;26.08;;;24.48;;
63217;SDS011;49314;48.278;16.378;2023-05-19T00:34:16;21.60;;;20.13;;
63217;SDS011;49314;48.278;16.378;2023-05-19T00:36:41;25.90;;;23.95;;
63217;SDS011;49314;48.278;16.378;2023-05-19T00:39:06;23.17;;;21.42;;
63217;SDS011;49314;48.278;16.378;2023-05-19T00:41:31;29.85;;;27.80;;
63217;SDS011;49314;48.278;16.378;2023-05-19T00:43:57;21.65;;;20.25;;
63217;SDS011;49314;48.278;16.378;2023-05-19T00:46:22;22.83;;;21.30;;
63217;SDS011;49314;48.278;16.378;2023-05-19T00:48:47;20.85;;;19.38;;
63217;SDS011;49314;48.278;16.378;2023-05-19T00:51:13;26.42;;;24.65;;
63217;SDS011;49314;48.278;16.378;2023-05-19T00:53:40;25.48;;;23.40;;
63217;SDS011;49314;48.278;16.378;2023-05-19T00:56:07;21.77;;;20.00;;
63217;SDS011;49314;48.278;16.378;2023-05-19T00:58:33;23.63;;;21.77;;
63217;SDS011;49314;48.278;16.378;2023-05-19T01:00:59;23.60;;;21.77;;
63217;SDS011;49314;48.278;16.378;2023-05-19T01:03:32;26.55;;;24.55;;
63217;SDS011;49314;48.278;16.378;2023-05-19T01:05:58;21.70;;;19.95;;
63217;SDS011;49314;48.278;16.378;2023-05-19T01:08:30;28.55;;;26.48;;
63217;SDS011;49314;48.278;16.378;2023-05-19T01:10:55;29.80;;;27.80;;
63217;SDS011;49314;48.278;16.378;2023-05-19T01:13:20;22.42;;;20.50;;
63217;SDS011;49314;48.278;16.378;2023-05-19T01:21:09;33.88;;;31.67;;
63217;SDS011;49314;48.278;16.378;2023-05-19T01:23:44;31.13;;;28.75;;
63217;SDS011;49314;48.278;16.378;2023-05-19T01:31:04;21.93;;;20.17;;
63217;SDS011;49314;48.278;16.378;2023-05-19T01:33:31;35.10;;;33.03;;
63217;SDS011;49314;48.278;16.378;2023-05-19T01:35:57;25.98;;;24.15;;
63217;SDS011;49314;48.278;16.378;2023-05-19T01:38:23;28.83;;;26.95;;
63217;SDS011;49314;48.278;16.378;2023-05-19T01:40:49;33.90;;;31.55;;
63217;SDS011;49314;48.278;16.378;2023-05-19T01:43:17;23.20;;;21.30;;
63217;SDS011;49314;48.278;16.378;2023-05-19T01:45:43;24.40;;;22.60;;
63217;SDS011;49314;48.278;16.378;2023-05-19T01:48:08;37.90;;;35.05;;
63217;SDS011;49314;48.278;16.378;2023-05-19T01:50:34;29.13;;;26.92;;
63217;SDS011;49314;48.278;16.378;2023-05-19T01:52:59;26.92;;;24.85;;
63217;SDS011;49314;48.278;16.378;2023-05-19T01:55:25;27.00;;;24.83;;
63217;SDS011;49314;48.278;16.378;2023-05-19T02:03:00;27.98;;;25.60;;
63217;SDS011;49314;48.278;16.378;2023-05-19T02:05:33;35.88;;;33.55;;
63217;SDS011;49314;48.278;16.378;2023-05-19T02:08:09;36.38;;;34.08;;
63217;SDS011;49314;48.278;16.378;2023-05-19T02:10:35;31.42;;;29.33;;
63217;SDS011;49314;48.278;16.378;2023-05-19T02:13:03;25.20;;;22.85;;
63217;SDS011;49314;48.278;16.378;2023-05-19T02:15:29;32.35;;;30.10;;
63217;SDS011;49314;48.278;16.378;2023-05-19T02:17:59;31.75;;;29.58;;
63217;SDS011;49314;48.278;16.378;2023-05-19T02:20:28;35.25;;;32.75;;
63217;SDS011;49314;48.278;16.378;2023-05-19T02:22:54;33.55;;;31.35;;
63217;SDS011;49314;48.278;16.378;2023-05-19T02:25:19;23.55;;;21.67;;
63217;SDS011;49314;48.278;16.378;2023-05-19T02:27:45;31.92;;;29.75;;
63217;SDS011;49314;48.278;16.378;2023-05-19T02:30:13;27.27;;;25.27;;
63217;SDS011;49314;48.278;16.378;2023-05-19T02:32:38;34.25;;;32.17;;
63217;SDS011;49314;48.278;16.378;2023-05-19T02:35:03;33.83;;;31.65;;
63217;SDS011;49314;48.278;16.378;2023-05-19T02:37:29;25.67;;;23.77;;
63217;SDS011;49314;48.278;16.378;2023-05-19T02:39:55;30.45;;;28.40;;
63217;SDS011;49314;48.278;16.378;2023-05-19T02:42:20;21.85;;;20.25;;
63217;SDS011;49314;48.278;16.378;2023-05-19T02:44:45;27.02;;;25.25;;
63217;SDS011;49314;48.278;16.378;2023-05-19T02:47:11;27.33;;;25.30;;
63217;SDS011;49314;48.278;16.378;2023-05-19T02:49:36;34.92;;;32.65;;
63217;SDS011;49314;48.278;16.378;2023-05-19T02:52:02;24.57;;;22.87;;
63217;SDS011;49314;48.278;16.378;2023-05-19T02:54:30;33.88;;;31.83;;
63217;SDS011;49314;48.278;16.378;2023-05-19T02:56:56;28.73;;;27.02;;
63217;SDS011;49314;48.278;16.378;2023-05-19T02:59:21;24.60;;;22.75;;
63217;SDS011;49314;48.278;16.378;2023-05-19T03:01:47;23.58;;;21.73;;
63217;SDS011;49314;48.278;16.378;2023-05-19T03:04:12;34.03;;;31.83;;
63217;SDS011;49314;48.278;16.378;2023-05-19T03:06:38;35.92;;;33.85;;
63217;SDS011;49314;48.278;16.378;2023-05-19T03:09:03;31.02;;;28.88;;
63217;SDS011;49314;48.278;16.378;2023-05-19T03:11:28;33.33;;;31.42;;
63217;SDS011;49314;48.278;16.378;2023-05-19T03:13:54;33.75;;;31.75;;
63217;SDS011;49314;48.278;16.378;2023-05-19T03:16:20;20.90;;;19.20;;
63217;SDS011;49314;48.278;16.378;2023-05-19T03:18:46;17.23;;;15.77;;
63217;SDS011;49314;48.278;16.378;2023-05-19T03:21:11;20.08;;;18.77;;
63217;SDS011;49314;48.278;16.378;2023-05-19T03:23:36;19.73;;;18.17;;
63217;SDS011;49314;48.278;16.378;2023-05-19T03:26:01;25.30;;;23.50;;
63217;SDS011;49314;48.278;16.378;2023-05-19T03:28:27;21.58;;;20.05;;
63217;SDS011;49314;48.278;16.378;2023-05-19T03:30:52;21.85;;;20.40;;
63217;SDS011;49314;48.278;16.378;2023-05-19T03:33:17;26.60;;;25.00;;
63217;SDS011;49314;48.278;16.378;2023-05-19T03:35:42;17.83;;;16.38;;
63217;SDS011;49314;48.278;16.378;2023-05-19T03:38:08;21.45;;;20.05;;
63217;SDS011;49314;48.278;16.378;2023-05-19T03:40:33;28.20;;;26.48;;
63217;SDS011;49314;48.278;16.378;2023-05-19T03:42:59;22.80;;;21.33;;
63217;SDS011;49314;48.278;16.378;2023-05-19T03:45:25;23.10;;;21.67;;
63217;SDS011;49314;48.278;16.378;2023-05-19T03:47:50;23.17;;;21.73;;
63217;SDS011;49314;48.278;16.378;2023-05-19T03:50:15;27.65;;;25.10;;
63217;SDS011;49314;48.278;16.378;2023-05-19T03:52:41;20.00;;;18.70;;
63217;SDS011;49314;48.278;16.378;2023-05-19T03:55:09;22.00;;;20.60;;
63217;SDS011;49314;48.278;16.378;2023-05-19T03:57:34;20.98;;;19.75;;
63217;SDS011;49314;48.278;16.378;2023-05-19T04:00:00;20.63;;;19.58;;
63217;SDS011;49314;48.278;16.378;2023-05-19T04:02:25;15.85;;;14.73;;
63217;SDS011;49314;48.278;16.378;2023-05-19T04:04:50;24.75;;;23.58;;
63217;SDS011;49314;48.278;16.378;2023-05-19T04:07:15;19.83;;;18.63;;
63217;SDS011;49314;48.278;16.378;2023-05-19T04:09:41;17.02;;;15.80;;
63217;SDS011;49314;48.278;16.378;2023-05-19T04:12:06;22.48;;;21.10;;
63217;SDS011;49314;48.278;16.378;2023-05-19T04:14:31;17.58;;;16.42;;
63217;SDS011;49314;48.278;16.378;2023-05-19T04:16:57;22.27;;;20.98;;
63217;SDS011;49314;48.278;16.378;2023-05-19T04:19:22;16.08;;;14.95;;
63217;SDS011;49314;48.278;16.378;2023-05-19T04:21:47;18.48;;;17.45;;
63217;SDS011;49314;48.278;16.378;2023-05-19T04:24:13;19.42;;;18.30;;
63217;SDS011;49314;48.278;16.378;2023-05-19T04:26:38;19.52;;;18.38;;
63217;SDS011;49314;48.278;16.378;2023-05-19T04:29:06;19.58;;;18.27;;
63217;SDS011;49314;48.278;16.378;2023-05-19T04:31:32;19.90;;;18.80;;
63217;SDS011;49314;48.278;16.378;2023-05-19T04:33:59;22.17;;;20.88;;
63217;SDS011;49314;48.278;16.378;2023-05-19T04:36:25;22.90;;;21.48;;
63217;SDS011;49314;48.278;16.378;2023-05-19T04:38:51;21.35;;;19.85;;
63217;SDS011;49314;48.278;16.378;2023-05-19T04:41:18;15.68;;;14.55;;
63217;SDS011;49314;48.278;16.378;2023-05-19T04:43:45;14.77;;;13.70;;
63217;SDS011;49314;48.278;16.378;2023-05-19T04:46:12;13.25;;;12.07;;
63217;SDS011;49314;48.278;16.378;2023-05-19T04:48:38;15.43;;;14.45;;
63217;SDS011;49314;48.278;16.378;2023-05-19T04:51:05;17.00;;;15.90;;
63217;SDS011;49314;48.278;16.378;2023-05-19T04:53:31;12.48;;;11.55;;
63217;SDS011;49314;48.278;16.378;2023-05-19T04:55:56;10.38;;;9.57;;
63217;SDS011;49314;48.278;16.378;2023-05-19T04:58:22;13.35;;;12.15;;
63217;SDS011;49314;48.278;16.378;2023-05-19T05:00:50;14.10;;;13.23;;
63217;SDS011;49314;48.278;16.378;2023-05-19T05:03:15;12.48;;;11.48;;
63217;SDS011;49314;48.278;16.378;2023-05-19T05:05:41;12.93;;;12.02;;
63217;SDS011;49314;48.278;16.378;2023-05-19T05:08:08;12.88;;;11.88;;
63217;SDS011;49314;48.278;16.378;2023-05-19T05:10:33;12.85;;;10.35;;
63217;SDS011;49314;48.278;16.378;2023-05-19T05:12:59;11.47;;;10.43;;
63217;SDS011;49314;48.278;16.378;2023-05-19T05:15:25;10.57;;;9.57;;
63217;SDS011;49314;48.278;16.378;2023-05-19T05:17:52;17.38;;;15.90;;
63217;SDS011;49314;48.278;16.378;2023-05-19T05:20:18;12.68;;;11.77;;
63217;SDS011;49314;48.278;16.378;2023-05-19T05:22:43;12.73;;;11.48;;
63217;SDS011;49314;48.278;16.378;2023-05-19T05:25:09;11.82;;;11.02;;
63217;SDS011;49314;48.278;16.378;2023-05-19T05:27:35;11.50;;;10.63;;
63217;SDS011;49314;48.278;16.378;2023-05-19T05:30:00;12.13;;;11.05;;
63217;SDS011;49314;48.278;16.378;2023-05-19T05:32:25;12.98;;;12.00;;
63217;SDS011;49314;48.278;16.378;2023-05-19T05:34:51;10.33;;;9.33;;
63217;SDS011;49314;48.278;16.378;2023-05-19T05:37:16;12.15;;;11.35;;
63217;SDS011;49314;48.278;16.378;2023-05-19T05:39:41;11.05;;;10.15;;
63217;SDS011;49314;48.278;16.378;2023-05-19T05:42:06;9.57;;;8.57;;
63217;SDS011;49314;48.278;16.378;2023-05-19T05:44:34;10.70;;;9.82;;
63217;SDS011;49314;48.278;16.378;2023-05-19T05:47:00;9.67;;;8.77;;
63217;SDS011;49314;48.278;16.378;2023-05-19T05:49:25;10.30;;;9.50;;
63217;SDS011;49314;48.278;16.378;2023-05-19T05:51:51;9.05;;;8.25;;
63217;SDS011;49314;48.278;16.378;2023-05-19T05:54:16;11.25;;;10.10;;
63217;SDS011;49314;48.278;16.378;2023-05-19T05:56:42;10.10;;;9.20;;
63217;SDS011;49314;48.278;16.378;2023-05-19T05:59:08;10.32;;;9.52;;
63217;SDS011;49314;48.278;16.378;2023-05-19T06:01:33;9.50;;;8.67;;
63217;SDS011;49314;48.278;16.378;2023-05-19T06:03:59;10.70;;;9.70;;
63217;SDS011;49314;48.278;16.378;2023-05-19T06:06:25;10.55;;;9.30;;
63217;SDS011;49314;48.278;16.378;2023-05-19T06:08:50;12.00;;;10.98;;
63217;SDS011;49314;48.278;16.378;2023-05-19T06:11:15;9.80;;;9.10;;
63217;SDS011;49314;48.278;16.378;2023-05-19T06:13:40;9.80;;;8.90;;
63217;SDS011;49314;48.278;16.378;2023-05-19T06:16:06;10.18;;;9.30;;
63217;SDS011;49314;48.278;16.378;2023-05-19T06:18:31;10.75;;;9.90;;
63217;SDS011;49314;48.278;16.378;2023-05-19T06:20:57;9.63;;;8.52;;
63217;SDS011;49314;48.278;16.378;2023-05-19T06:23:22;9.55;;;8.57;;
63217;SDS011;49314;48.278;16.378;2023-05-19T06:25:48;7.97;;;7.18;;
63217;SDS011;49314;48.278;16.378;2023-05-19T06:28:13;9.73;;;8.85;;
63217;SDS011;49314;48.278;16.378;2023-05-19T06:30:38;8.73;;;7.93;;
63217;SDS011;49314;48.278;16.378;2023-05-19T06:33:03;8.23;;;7.53;;
63217;SDS011;49314;48.278;16.378;2023-05-19T06:35:29;9.40;;;8.70;;
63217;SDS011;49314;48.278;16.378;2023-05-19T06:37:56;10.70;;;9.70;;
63217;SDS011;49314;48.278;16.378;2023-05-19T06:40:22;10.38;;;9.57;;
63217;SDS011;49314;48.278;16.378;2023-05-19T06:42:47;9.48;;;8.00;;
63217;SDS011;49314;48.278;16.378;2023-05-19T06:45:12;9.57;;;8.87;;
63217;SDS011;49314;48.278;16.378;2023-05-19T06:47:38;10.30;;;9.30;;
63217;SDS011;49314;48.278;16.378;2023-05-19T06:50:06;7.80;;;7.18;;
63217;SDS011;49314;48.278;16.378;2023-05-19T06:52:31;8.82;;;8.10;;
63217;SDS011;49314;48.278;16.378;2023-05-19T06:54:57;9.60;;;8.70;;
63217;SDS011;49314;48.278;16.378;2023-05-19T06:57:22;8.50;;;7.87;;
63217;SDS011;49314;48.278;16.378;2023-05-19T06:59:47;8.55;;;7.75;;
63217;SDS011;49314;48.278;16.378;2023-05-19T07:02:12;8.77;;;7.93;;
63217;SDS011;49314;48.278;16.378;2023-05-19T07:04:38;8.13;;;7.60;;
63217;SDS011;49314;48.278;16.378;2023-05-19T07:07:03;9.05;;;8.20;;
63217;SDS011;49314;48.278;16.378;2023-05-19T07:09:29;7.28;;;6.57;;
63217;SDS011;49314;48.278;16.378;2023-05-19T07:11:54;7.53;;;6.90;;
63217;SDS011;49314;48.278;16.378;2023-05-19T07:14:20;7.10;;;6.50;;
63217;SDS011;49314;48.278;16.378;2023-05-19T07:16:45;7.88;;;7.25;;
63217;SDS011;49314;48.278;16.378;2023-05-19T07:19:11;8.83;;;8.13;;
63217;SDS011;49314;48.278;16.378;2023-05-19T07:21:36;8.00;;;7.30;;
63217;SDS011;49314;48.278;16.378;2023-05-19T07:24:01;7.95;;;7.13;;
63217;SDS011;49314;48.278;16.378;2023-05-19T07:26:27;9.93;;;7.47;;
63217;SDS011;49314;48.278;16.378;2023-05-19T07:28:52;8.13;;;7.43;;
63217;SDS011;49314;48.278;16.378;2023-05-19T07:31:18;8.30;;;7.60;;
63217;SDS011;49314;48.278;16.378;2023-05-19T07:33:43;7.88;;;7.25;;
63217;SDS011;49314;48.278;16.378;2023-05-19T07:36:08;8.15;;;7.55;;
63217;SDS011;49314;48.278;16.378;2023-05-19T07:38:34;7.40;;;6.80;;
63217;SDS011;49314;48.278;16.378;2023-05-19T07:41:00;8.00;;;7.25;;
63217;SDS011;49314;48.278;16.378;2023-05-19T07:43:25;7.97;;;7.10;;
63217;SDS011;49314;48.278;16.378;2023-05-19T07:45:50;7.45;;;6.95;;
63217;SDS011;49314;48.278;16.378;2023-05-19T07:48:17;8.63;;;6.97;;
63217;SDS011;49314;48.278;16.378;2023-05-19T07:50:42;6.82;;;6.30;;
63217;SDS011;49314;48.278;16.378;2023-05-19T07:53:08;6.65;;;6.05;;
63217;SDS011;49314;48.278;16.378;2023-05-19T07:55:33;8.20;;;7.53;;
63217;SDS011;49314;48.278;16.378;2023-05-19T07:57:58;7.10;;;6.50;;
63217;SDS011;49314;48.278;16.378;2023-05-19T08:00:23;8.57;;;6.83;;
63217;SDS011;49314;48.278;16.378;2023-05-19T08:02:49;6.47;;;6.03;;
63217;SDS011;49314;48.278;16.378;2023-05-19T08:05:14;8.13;;;7.28;;
63217;SDS011;49314;48.278;16.378;2023-05-19T08:07:39;7.83;;;7.13;;
63217;SDS011;49314;48.278;16.378;2023-05-19T08:10:05;7.97;;;7.18;;
63217;SDS011;49314;48.278;16.378;2023-05-19T08:12:30;7.03;;;6.53;;
63217;SDS011;49314;48.278;16.378;2023-05-19T08:14:56;8.43;;;7.35;;
63217;SDS011;49314;48.278;16.378;2023-05-19T08:17:21;7.20;;;6.65;;
63217;SDS011;49314;48.278;16.378;2023-05-19T08:19:47;8.55;;;7.32;;
63217;SDS011;49314;48.278;16.378;2023-05-19T08:22:12;7.30;;;6.60;;
63217;SDS011;49314;48.278;16.378;2023-05-19T08:24:37;6.30;;;5.80;;
63217;SDS011;49314;48.278;16.378;2023-05-19T08:27:03;7.15;;;6.55;;
63217;SDS011;49314;48.278;16.378;2023-05-19T08:29:29;7.40;;;6.80;;
63217;SDS011;49314;48.278;16.378;2023-05-19T08:31:54;9.02;;;6.70;;
63217;SDS011;49314;48.278;16.378;2023-05-19T08:34:20;7.10;;;6.50;;
63217;SDS011;49314;48.278;16.378;2023-05-19T08:36:46;7.22;;;6.55;;
63217;SDS011;49314;48.278;16.378;2023-05-19T08:39:11;6.78;;;5.85;;
63217;SDS011;49314;48.278;16.378;2023-05-19T08:41:37;9.25;;;6.90;;
63217;SDS011;49314;48.278;16.378;2023-05-19T08:44:03;6.20;;;5.65;;
63217;SDS011;49314;48.278;16.378;2023-05-19T08:46:29;5.63;;;5.15;;
63217;SDS011;49314;48.278;16.378;2023-05-19T08:48:57;6.10;;;5.60;;
63217;SDS011;49314;48.278;16.378;2023-05-19T08:51:26;5.82;;;5.28;;
63217;SDS011;49314;48.278;16.378;2023-05-19T08:53:52;5.93;;;5.43;;
63217;SDS011;49314;48.278;16.378;2023-05-19T08:56:22;6.03;;;5.43;;
63217;SDS011;49314;48.278;16.378;2023-05-19T08:58:48;5.05;;;4.63;;
63217;SDS011;49314;48.278;16.378;2023-05-19T09:01:14;6.13;;;5.05;;
63217;SDS011;49314;48.278;16.378;2023-05-19T09:03:43;4.95;;;4.45;;
63217;SDS011;49314;48.278;16.378;2023-05-19T09:06:09;5.07;;;4.57;;
63217;SDS011;49314;48.278;16.378;2023-05-19T09:08:36;4.90;;;4.38;;
63217;SDS011;49314;48.278;16.378;2023-05-19T09:11:02;5.35;;;4.10;;
63217;SDS011;49314;48.278;16.378;2023-05-19T09:13:27;5.00;;;4.60;;
63217;SDS011;49314;48.278;16.378;2023-05-19T09:15:53;5.47;;;5.03;;
63217;SDS011;49314;48.278;16.378;2023-05-19T09:18:20;5.55;;;5.15;;
63217;SDS011;49314;48.278;16.378;2023-05-19T09:20:45;6.03;;;5.43;;
63217;SDS011;49314;48.278;16.378;2023-05-19T09:23:14;5.10;;;4.70;;
63217;SDS011;49314;48.278;16.378;2023-05-19T09:28:11;4.88;;;4.32;;
63217;SDS011;49314;48.278;16.378;2023-05-19T09:30:36;5.27;;;4.77;;
63217;SDS011;49314;48.278;16.378;2023-05-19T09:33:01;4.70;;;3.97;;
63217;SDS011;49314;48.278;16.378;2023-05-19T09:35:28;5.20;;;4.70;;
63217;SDS011;49314;48.278;16.378;2023-05-19T09:37:53;4.68;;;4.28;;
63217;SDS011;49314;48.278;16.378;2023-05-19T09:40:18;4.63;;;4.13;;
63217;SDS011;49314;48.278;16.378;2023-05-19T09:42:44;5.47;;;4.97;;
63217;SDS011;49314;48.278;16.378;2023-05-19T09:45:09;5.07;;;4.67;;
63217;SDS011;49314;48.278;16.378;2023-05-19T09:47:35;5.03;;;4.53;;
63217;SDS011;49314;48.278;16.378;2023-05-19T09:50:07;5.10;;;4.55;;
63217;SDS011;49314;48.278;16.378;2023-05-19T09:52:41;4.45;;;4.13;;
63217;SDS011;49314;48.278;16.378;2023-05-19T09:55:11;4.80;;;4.40;;
63217;SDS011;49314;48.278;16.378;2023-05-19T09:57:37;4.22;;;3.83;;
63217;SDS011;49314;48.278;16.378;2023-05-19T10:00:03;8.48;;;4.82;;
63217;SDS011;49314;48.278;16.378;2023-05-19T10:02:49;4.32;;;3.92;;
63217;SDS011;49314;48.278;16.378;2023-05-19T10:05:17;4.38;;;3.83;;
63217;SDS011;49314;48.278;16.378;2023-05-19T10:07:46;5.60;;;3.77;;
63217;SDS011;49314;48.278;16.378;2023-05-19T10:10:14;4.57;;;3.90;;
63217;SDS011;49314;48.278;16.378;2023-05-19T10:12:39;5.40;;;4.35;;
63217;SDS011;49314;48.278;16.378;2023-05-19T10:15:07;5.63;;;4.93;;
63217;SDS011;49314;48.278;16.378;2023-05-19T10:17:33;4.22;;;3.85;;
63217;SDS011;49314;48.278;16.378;2023-05-19T10:19:58;5.50;;;5.00;;
63217;SDS011;49314;48.278;16.378;2023-05-19T10:22:24;5.45;;;4.82;;
63217;SDS011;49314;48.278;16.378;2023-05-19T10:24:49;4.67;;;4.37;;
63217;SDS011;49314;48.278;16.378;2023-05-19T10:27:14;4.13;;;3.78;;
63217;SDS011;49314;48.278;16.378;2023-05-19T10:29:41;4.80;;;4.07;;
63217;SDS011;49314;48.278;16.378;2023-05-19T10:32:12;7.43;;;5.28;;
63217;SDS011;49314;48.278;16.378;2023-05-19T10:34:59;4.65;;;3.92;;
63217;SDS011;49314;48.278;16.378;2023-05-19T10:37:45;4.47;;;4.07;;
63217;SDS011;49314;48.278;16.378;2023-05-19T10:42:37;4.65;;;4.25;;
63217;SDS011;49314;48.278;16.378;2023-05-19T10:47:32;5.72;;;3.78;;
63217;SDS011;49314;48.278;16.378;2023-05-19T10:50:01;5.43;;;3.78;;
63217;SDS011;49314;48.278;16.378;2023-05-19T10:52:28;4.60;;;3.58;;
63217;SDS011;49314;48.278;16.378;2023-05-19T10:54:54;3.55;;;3.15;;
63217;SDS011;49314;48.278;16.378;2023-05-19T10:57:26;3.43;;;3.03;;
63217;SDS011;49314;48.278;16.378;2023-05-19T10:59:57;3.67;;;3.38;;
63217;SDS011;49314;48.278;16.378;2023-05-19T11:02:39;2.88;;;2.63;;
63217;SDS011;49314;48.278;16.378;2023-05-19T11:05:11;3.78;;;2.63;;
63217;SDS011;49314;48.278;16.378;2023-05-19T11:07:41;5.40;;;3.05;;
63217;SDS011;49314;48.278;16.378;2023-05-19T11:10:07;4.22;;;3.13;;
63217;SDS011;49314;48.278;16.378;2023-05-19T11:12:43;6.30;;;3.33;;
63217;SDS011;49314;48.278;16.378;2023-05-19T11:15:15;4.32;;;3.92;;
63217;SDS011;49314;48.278;16.378;2023-05-19T11:17:40;4.20;;;3.88;;
63217;SDS011;49314;48.278;16.378;2023-05-19T11:20:11;3.85;;;3.03;;
63217;SDS011;49314;48.278;16.378;2023-05-19T11:22:45;5.32;;;3.60;;
63217;SDS011;49314;48.278;16.378;2023-05-19T11:25:39;3.28;;;3.00;;
63217;SDS011;49314;48.278;16.378;2023-05-19T11:28:05;3.47;;;3.17;;
63217;SDS011;49314;48.278;16.378;2023-05-19T11:30:30;4.03;;;3.15;;
63217;SDS011;49314;48.278;16.378;2023-05-19T11:32:56;4.28;;;3.88;;
63217;SDS011;49314;48.278;16.378;2023-05-19T11:35:21;3.67;;;3.13;;
63217;SDS011;49314;48.278;16.378;2023-05-19T11:37:47;5.13;;;3.50;;
63217;SDS011;49314;48.278;16.378;2023-05-19T11:40:13;3.97;;;3.20;;
63217;SDS011;49314;48.278;16.378;2023-05-19T11:42:39;4.68;;;2.80;;
63217;SDS011;49314;48.278;16.378;2023-05-19T11:45:05;3.60;;;3.30;;
63217;SDS011;49314;48.278;16.378;2023-05-19T11:47:31;4.00;;;3.65;;
63217;SDS011;49314;48.278;16.378;2023-05-19T11:49:59;3.00;;;2.80;;
63217;SDS011;49314;48.278;16.378;2023-05-19T11:52:24;5.82;;;3.75;;
63217;SDS011;49314;48.278;16.378;2023-05-19T11:54:51;3.33;;;2.88;;
63217;SDS011;49314;48.278;16.378;2023-05-19T11:57:16;3.10;;;2.88;;
63217;SDS011;49314;48.278;16.378;2023-05-19T11:59:42;5.13;;;3.60;;
63217;SDS011;49314;48.278;16.378;2023-05-19T12:02:14;4.70;;;3.30;;
63217;SDS011;49314;48.278;16.378;2023-05-19T12:04:40;6.57;;;3.50;;
63217;SDS011;49314;48.278;16.378;2023-05-19T12:07:05;3.40;;;3.10;;
63217;SDS011;49314;48.278;16.378;2023-05-19T12:09:30;3.28;;;2.47;;
63217;SDS011;49314;48.278;16.378;2023-05-19T12:11:56;3.25;;;2.95;;
63217;SDS011;49314;48.278;16.378;2023-05-19T12:14:22;4.18;;;2.97;;
63217;SDS011;49314;48.278;16.378;2023-05-19T12:16:47;10.43;;;3.22;;
63217;SDS011;49314;48.278;16.378;2023-05-19T12:19:12;4.03;;;2.53;;
63217;SDS011;49314;48.278;16.378;2023-05-19T12:21:38;2.80;;;2.60;;
63217;SDS011;49314;48.278;16.378;2023-05-19T12:24:03;3.75;;;3.22;;
63217;SDS011;49314;48.278;16.378;2023-05-19T12:26:29;8.60;;;2.90;;
63217;SDS011;49314;48.278;16.378;2023-05-19T12:28:55;6.07;;;5.57;;
63217;SDS011;49314;48.278;16.378;2023-05-19T12:31:20;5.27;;;3.27;;
63217;SDS011;49314;48.278;16.378;2023-05-19T12:33:47;4.22;;;3.88;;
63217;SDS011;49314;48.278;16.378;2023-05-19T12:36:15;8.70;;;4.15;;
63217;SDS011;49314;48.278;16.378;2023-05-19T12:38:41;6.82;;;5.78;;
63217;SDS011;49314;48.278;16.378;2023-05-19T12:41:09;55.05;;;9.73;;
63217;SDS011;49314;48.278;16.378;2023-05-19T12:43:34;4.38;;;3.85;;
63217;SDS011;49314;48.278;16.378;2023-05-19T12:46:12;6.45;;;3.78;;
63217;SDS011;49314;48.278;16.378;2023-05-19T12:48:43;3.42;;;2.90;;
63217;SDS011;49314;48.278;16.378;2023-05-19T12:51:08;7.00;;;3.28;;
63217;SDS011;49314;48.278;16.378;2023-05-19T12:53:34;13.05;;;3.95;;
63217;SDS011;49314;48.278;16.378;2023-05-19T12:55:59;4.25;;;2.63;;
63217;SDS011;49314;48.278;16.378;2023-05-19T12:58:24;2.87;;;2.53;;
63217;SDS011;49314;48.278;16.378;2023-05-19T13:00:49;3.47;;;2.83;;
63217;SDS011;49314;48.278;16.378;2023-05-19T13:03:16;3.08;;;2.47;;
63217;SDS011;49314;48.278;16.378;2023-05-19T13:05:42;5.38;;;2.25;;
63217;SDS011;49314;48.278;16.378;2023-05-19T13:08:17;2.33;;;2.13;;
63217;SDS011;49314;48.278;16.378;2023-05-19T13:10:44;3.22;;;2.10;;
63217;SDS011;49314;48.278;16.378;2023-05-19T13:13:10;3.35;;;2.42;;
63217;SDS011;49314;48.278;16.378;2023-05-19T13:15:39;5.90;;;2.75;;
63217;SDS011;49314;48.278;16.378;2023-05-19T13:18:05;5.82;;;2.75;;
63217;SDS011;49314;48.278;16.378;2023-05-19T13:20:31;5.07;;;2.90;;
63217;SDS011;49314;48.278;16.378;2023-05-19T13:22:57;3.65;;;2.65;;
63217;SDS011;49314;48.278;16.378;2023-05-19T13:25:22;2.45;;;2.25;;
63217;SDS011;49314;48.278;16.378;2023-05-19T13:27:48;2.65;;;2.22;;
63217;SDS011;49314;48.278;16.378;2023-05-19T13:30:13;4.13;;;3.27;;
63217;SDS011;49314;48.278;16.378;2023-05-19T13:32:40;2.88;;;2.50;;
63217;SDS011;49314;48.278;16.378;2023-05-19T13:35:05;3.08;;;2.00;;
63217;SDS011;49314;48.278;16.378;2023-05-19T13:37:30;3.00;;;2.80;;
63217;SDS011;49314;48.278;16.378;2023-05-19T13:39:56;3.53;;;2.40;;
63217;SDS011;49314;48.278;16.378;2023-05-19T13:42:22;3.08;;;2.47;;
63217;SDS011;49314;48.278;16.378;2023-05-19T13:44:47;4.95;;;3.22;;
63217;SDS011;49314;48.278;16.378;2023-05-19T13:47:12;3.80;;;3.50;;
63217;SDS011;49314;48.278;16.378;2023-05-19T13:49:38;3.60;;;3.13;;
63217;SDS011;49314;48.278;16.378;2023-05-19T13:52:04;4.00;;;3.60;;
63217;SDS011;49314;48.278;16.378;2023-05-19T13:54:30;3.63;;;3.33;;
63217;SDS011;49314;48.278;16.378;2023-05-19T13:56:55;3.63;;;3.33;;
63217;SDS011;49314;48.278;16.378;2023-05-19T13:59:21;3.65;;;3.30;;
63217;SDS011;49314;48.278;16.378;2023-05-19T14:01:46;3.97;;;3.33;;
63217;SDS011;49314;48.278;16.378;2023-05-19T14:04:12;8.98;;;4.38;;
63217;SDS011;49314;48.278;16.378;2023-05-19T14:06:37;16.02;;;8.25;;
63217;SDS011;49314;48.278;16.378;2023-05-19T14:09:04;3.95;;;3.53;;
63217;SDS011;49314;48.278;16.378;2023-05-19T14:11:30;3.50;;;3.30;;
63217;SDS011;49314;48.278;16.378;2023-05-19T14:13:55;3.38;;;3.15;;
63217;SDS011;49314;48.278;16.378;2023-05-19T14:16:20;3.43;;;3.13;;
63217;SDS011;49314;48.278;16.378;2023-05-19T14:18:46;3.97;;;3.60;;
63217;SDS011;49314;48.278;16.378;2023-05-19T14:21:12;4.90;;;4.60;;
63217;SDS011;49314;48.278;16.378;2023-05-19T14:23:38;4.13;;;3.83;;
63217;SDS011;49314;48.278;16.378;2023-05-19T14:26:03;4.73;;;3.93;;
63217;SDS011;49314;48.278;16.378;2023-05-19T14:28:28;5.70;;;4.90;;
63217;SDS011;49314;48.278;16.378;2023-05-19T14:30:53;6.07;;;5.10;;
63217;SDS011;49314;48.278;16.378;2023-05-19T14:33:19;6.85;;;4.78;;
63217;SDS011;49314;48.278;16.378;2023-05-19T14:35:44;5.13;;;4.72;;
63217;SDS011;49314;48.278;16.378;2023-05-19T14:38:09;5.70;;;5.20;;
63217;SDS011;49314;48.278;16.378;2023-05-19T14:40:35;5.27;;;4.87;;